Time;durP1;ratioP1;P1;durP2;ratioP2;P2;SDS_P1;SDS_P2;PMS_P1;PMS_P2;Temp;Humidity;BMP_temperature;BMP_pressure;BME280_temperature;BME280_humidity;BME280_pressure;Samples;Min_cycle;Max_cycle;Signal;HPM_P1;HPM_P2
2021/01/20 00:01:16;;;;;;;11.65;6.47;;;5.60;99.90;;;;;;4949200;28;20133;-74
2021/01/20 00:03:41;;;;;;;10.57;6.00;;;5.60;99.90;;;;;;4961584;28;20047;-75
2021/01/20 00:06:07;;;;;;;12.35;6.05;;;5.60;99.90;;;;;;4968048;28;20043;-76
2021/01/20 00:08:33;;;;;;;11.02;6.45;;;5.60;99.90;;;;;;4954833;28;20035;-75
2021/01/20 00:10:59;;;;;;;12.43;6.90;;;5.50;99.90;;;;;;4955399;28;20041;-74
2021/01/20 00:13:25;;;;;;;12.73;6.47;;;5.50;99.90;;;;;;4949473;28;20089;-74
2021/01/20 00:15:51;;;;;;;10.95;6.35;;;5.40;99.90;;;;;;4955938;28;20046;-74
2021/01/20 00:18:17;;;;;;;10.43;6.40;;;5.40;99.90;;;;;;4961832;28;20504;-74
2021/01/20 00:20:42;;;;;;;12.02;6.53;;;5.30;99.90;;;;;;4953435;28;20106;-74
2021/01/20 00:23:08;;;;;;;11.82;7.18;;;5.20;99.90;;;;;;4951067;28;20109;-73
2021/01/20 00:25:34;;;;;;;12.82;6.97;;;5.20;99.90;;;;;;4954263;28;20069;-73
2021/01/20 00:27:59;;;;;;;11.65;6.88;;;5.20;99.90;;;;;;4952390;28;20402;-73
2021/01/20 00:30:25;;;;;;;12.48;7.68;;;5.10;99.90;;;;;;4956256;28;20039;-73
2021/01/20 00:32:51;;;;;;;14.00;7.22;;;5.10;99.90;;;;;;4943997;28;20033;-73
2021/01/20 00:35:21;;;;;;;11.48;7.00;;;5.00;99.90;;;;;;4963048;28;20479;-73
2021/01/20 00:37:47;;;;;;;13.63;7.63;;;5.00;99.90;;;;;;4944993;28;20507;-73
2021/01/20 00:40:14;;;;;;;12.65;7.15;;;5.00;99.90;;;;;;4948682;28;20126;-75
2021/01/20 00:42:39;;;;;;;12.68;7.07;;;5.00;99.90;;;;;;4948183;28;20534;-75
2021/01/20 00:45:06;;;;;;;12.57;6.97;;;5.00;99.90;;;;;;4945182;28;20040;-75
2021/01/20 00:47:31;;;;;;;13.55;7.10;;;5.10;99.90;;;;;;4947585;28;20039;-75
2021/01/20 00:49:57;;;;;;;11.57;6.60;;;5.20;99.90;;;;;;4949350;28;20030;-75
2021/01/20 00:52:23;;;;;;;12.05;6.93;;;5.20;99.90;;;;;;4948363;28;20031;-73
2021/01/20 00:54:49;;;;;;;12.77;7.28;;;5.20;99.90;;;;;;4945062;28;20090;-73
2021/01/20 00:57:15;;;;;;;11.18;6.40;;;5.20;99.90;;;;;;4948685;28;20489;-75
2021/01/20 00:59:41;;;;;;;12.68;7.13;;;5.20;99.90;;;;;;4951703;28;20859;-75
2021/01/20 01:02:07;;;;;;;12.95;7.05;;;5.20;99.90;;;;;;4952538;28;20771;-75
2021/01/20 01:04:37;;;;;;;10.45;6.30;;;5.10;99.90;;;;;;4950461;28;20045;-75
2021/01/20 01:07:03;;;;;;;12.82;6.72;;;5.00;99.90;;;;;;4954544;28;20031;-75
2021/01/20 01:09:30;;;;;;;10.82;6.78;;;5.00;99.90;;;;;;4961647;28;20043;-75
2021/01/20 01:11:56;;;;;;;12.45;7.40;;;5.00;99.90;;;;;;4968784;28;20942;-73
2021/01/20 01:14:22;;;;;;;12.05;6.95;;;5.00;99.90;;;;;;4970080;28;20108;-73
2021/01/20 01:17:06;;;;;;;12.98;7.32;;;4.90;99.90;;;;;;4968048;28;20038;-73
2021/01/20 01:19:43;;;;;;;12.38;7.22;;;4.90;99.90;;;;;;4948015;28;20037;-73
2021/01/20 01:22:09;;;;;;;13.05;7.47;;;4.90;99.90;;;;;;4960603;28;20780;-75
2021/01/20 01:24:39;;;;;;;13.00;7.90;;;4.80;99.90;;;;;;4966568;28;20502;-75
2021/01/20 01:27:05;;;;;;;13.02;8.07;;;4.80;99.90;;;;;;4951489;28;20080;-73
2021/01/20 01:29:31;;;;;;;14.38;8.65;;;4.70;99.90;;;;;;4949798;28;20027;-73
2021/01/20 01:32:02;;;;;;;16.05;9.45;;;4.70;99.90;;;;;;4965464;28;20050;-75
2021/01/20 01:34:28;;;;;;;15.35;9.45;;;4.80;99.90;;;;;;4962840;28;20034;-75
2021/01/20 01:36:58;;;;;;;15.93;10.05;;;4.70;99.90;;;;;;4960054;28;20039;-75
2021/01/20 01:39:44;;;;;;;17.27;10.45;;;4.90;99.90;;;;;;4950369;28;20047;-75
2021/01/20 01:42:11;;;;;;;14.73;9.80;;;4.80;99.90;;;;;;4965176;28;20070;-76
2021/01/20 01:44:38;;;;;;;14.85;9.45;;;4.80;99.90;;;;;;4949813;28;20141;-76
2021/01/20 01:47:05;;;;;;;15.98;10.20;;;4.80;99.90;;;;;;4966528;28;20037;-76
2021/01/20 01:49:43;;;;;;;14.55;9.75;;;4.80;99.90;;;;;;4965667;28;20039;-76
2021/01/20 01:52:13;;;;;;;16.67;9.88;;;4.80;99.90;;;;;;4959190;28;20037;-76
2021/01/20 01:54:40;;;;;;;15.88;10.52;;;4.90;99.90;;;;;;4954921;28;20047;-76
2021/01/20 01:57:17;;;;;;;16.02;10.55;;;4.90;99.90;;;;;;4956321;28;20402;-75
2021/01/20 01:59:48;;;;;;;14.85;10.50;;;4.90;99.90;;;;;;4968678;28;20101;-75
2021/01/20 02:02:34;;;;;;;14.90;10.25;;;4.80;99.90;;;;;;4953625;28;20047;-76
2021/01/20 02:05:01;;;;;;;16.17;10.45;;;4.90;99.90;;;;;;4953914;28;20070;-74
2021/01/20 02:07:32;;;;;;;17.33;12.25;;;4.90;99.90;;;;;;4950593;28;20085;-74
2021/01/20 02:10:01;;;;;;;16.75;11.13;;;4.90;99.90;;;;;;4964855;28;20031;-76
2021/01/20 02:12:40;;;;;;;17.23;11.88;;;4.80;99.90;;;;;;4954470;28;20046;-76
2021/01/20 02:15:44;;;;;;;20.45;11.13;;;4.80;99.90;;;;;;4955447;28;20046;-76
2021/01/20 02:18:15;;;;;;;19.60;11.90;;;4.80;99.90;;;;;;4964488;28;20042;-75
2021/01/20 02:21:18;;;;;;;19.42;11.73;;;4.70;99.90;;;;;;4970788;28;20030;-76
2021/01/20 02:24:10;;;;;;;20.08;11.10;;;4.80;99.90;;;;;;4956341;28;20051;-75
2021/01/20 02:26:50;;;;;;;17.65;11.10;;;4.80;99.90;;;;;;4945119;28;20053;-75
2021/01/20 02:29:53;;;;;;;18.70;11.02;;;4.70;99.90;;;;;;4963703;28;20090;-75
2021/01/20 02:32:45;;;;;;;19.55;11.35;;;4.70;99.90;;;;;;4947599;28;20038;-75
2021/01/20 02:35:13;;;;;;;17.65;11.43;;;4.70;99.90;;;;;;4941581;28;20039;-75
2021/01/20 02:37:39;;;;;;;19.85;11.30;;;4.60;99.90;;;;;;4947430;28;20039;-75
2021/01/20 02:40:31;;;;;;;22.27;13.85;;;4.60;99.90;;;;;;4956758;28;20035;-75
2021/01/20 02:43:06;;;;;;;;;;;4.60;99.90;;;;;;4953859;28;20221;-75
2021/01/20 02:45:52;;;;;;;17.58;11.02;;;4.60;99.90;;;;;;4945924;28;19921;-74
2021/01/20 02:48:19;;;;;;;19.02;11.95;;;4.60;99.90;;;;;;4955729;28;20694;-73
2021/01/20 02:50:45;;;;;;;21.63;11.98;;;4.60;99.90;;;;;;4945565;28;20058;-74
2021/01/20 02:53:17;;;;;;;18.20;11.35;;;4.60;99.90;;;;;;4942730;28;20032;-73
2021/01/20 02:56:05;;;;;;;17.00;11.13;;;4.60;99.90;;;;;;4953291;28;20145;-74
2021/01/20 02:58:46;;;;;;;16.63;10.90;;;4.60;99.90;;;;;;4949826;28;20494;-74
2021/01/20 03:01:29;;;;;;;16.85;10.82;;;4.60;99.90;;;;;;4951690;28;20054;-74
2021/01/20 03:03:57;;;;;;;19.00;11.10;;;4.50;99.90;;;;;;4953123;28;20126;-74
2021/01/20 03:06:24;;;;;;;17.48;10.73;;;4.50;99.90;;;;;;4948552;28;20039;-73
2021/01/20 03:08:52;;;;;;;15.70;9.95;;;4.50;99.90;;;;;;4948287;28;20129;-74
2021/01/20 03:11:17;;;;;;;17.88;11.10;;;4.40;99.90;;;;;;4943649;28;20043;-74
2021/01/20 03:13:46;;;;;;;16.23;11.30;;;4.50;99.90;;;;;;4951074;28;20130;-74
2021/01/20 03:16:12;;;;;;;17.83;10.55;;;4.50;99.90;;;;;;4950220;28;20130;-74
2021/01/20 03:18:38;;;;;;;15.25;10.10;;;4.50;99.90;;;;;;4944930;28;20069;-74
2021/01/20 03:21:04;;;;;;;15.30;10.15;;;4.50;99.90;;;;;;4955246;28;20043;-74
2021/01/20 03:23:30;;;;;;;16.75;10.13;;;4.50;99.90;;;;;;4942869;28;20050;-74
2021/01/20 03:25:59;;;;;;;15.65;10.00;;;4.50;99.90;;;;;;4950260;28;20047;-74
2021/01/20 03:28:24;;;;;;;14.52;9.00;;;4.40;99.90;;;;;;4957240;28;20891;-74
2021/01/20 03:30:51;;;;;;;14.07;9.63;;;4.40;99.90;;;;;;4943240;28;20034;-74
2021/01/20 03:33:17;;;;;;;18.58;9.68;;;4.40;99.90;;;;;;4950578;28;20050;-73
2021/01/20 03:35:42;;;;;;;14.15;9.60;;;4.40;99.90;;;;;;4946990;28;20043;-73
2021/01/20 03:38:08;;;;;;;15.13;8.82;;;4.40;99.90;;;;;;4952358;28;20043;-74
2021/01/20 03:40:35;;;;;;;15.35;9.27;;;4.30;99.90;;;;;;4946847;28;20143;-74
2021/01/20 03:43:01;;;;;;;16.33;8.85;;;4.30;99.90;;;;;;4956197;28;20808;-74
2021/01/20 03:45:26;;;;;;;16.95;9.45;;;4.20;99.90;;;;;;4958060;28;20043;-74
2021/01/20 03:47:52;;;;;;;15.25;8.40;;;4.20;99.90;;;;;;4956747;28;20049;-74
2021/01/20 03:50:18;;;;;;;15.18;8.50;;;4.10;99.90;;;;;;4959098;28;20045;-74
2021/01/20 03:52:44;;;;;;;14.40;8.25;;;4.10;99.90;;;;;;4947835;28;20043;-74
2021/01/20 03:55:10;;;;;;;13.90;8.27;;;4.20;99.90;;;;;;4948722;28;20698;-74
2021/01/20 03:57:35;;;;;;;15.80;8.68;;;4.20;99.90;;;;;;4951010;28;20121;-74
2021/01/20 04:00:02;;;;;;;13.95;7.22;;;4.10;99.90;;;;;;4952515;28;20496;-74
2021/01/20 04:02:29;;;;;;;15.68;7.65;;;4.10;99.90;;;;;;4953299;28;20122;-74
2021/01/20 04:05:08;;;;;;;12.27;7.63;;;4.20;99.90;;;;;;4964824;28;20035;-73
2021/01/20 04:07:34;;;;;;;12.52;7.15;;;4.10;99.90;;;;;;4964816;28;20526;-73
2021/01/20 04:09:59;;;;;;;13.35;7.28;;;4.10;99.90;;;;;;4956009;28;20074;-73
2021/01/20 04:12:25;;;;;;;18.73;7.25;;;4.10;99.90;;;;;;4953396;28;20434;-73
2021/01/20 04:14:51;;;;;;;11.40;6.28;;;4.10;99.90;;;;;;4954749;28;20785;-73
2021/01/20 04:17:16;;;;;;;11.93;7.05;;;4.10;99.90;;;;;;4952405;28;20039;-73
2021/01/20 04:19:42;;;;;;;13.85;6.13;;;4.20;99.90;;;;;;4956089;28;20871;-73
2021/01/20 04:22:08;;;;;;;15.20;6.13;;;4.10;99.90;;;;;;4954335;28;20044;-73
2021/01/20 04:24:34;;;;;;;12.38;6.00;;;4.10;99.90;;;;;;4954367;28;20038;-74
2021/01/20 04:26:59;;;;;;;15.27;6.45;;;4.10;99.90;;;;;;4952720;28;20475;-74
2021/01/20 04:29:25;;;;;;;14.27;5.50;;;4.10;99.90;;;;;;4959893;28;20050;-74
2021/01/20 04:31:51;;;;;;;11.80;5.30;;;4.10;99.90;;;;;;4959339;28;20756;-74
2021/01/20 04:34:36;;;;;;;7.97;5.00;;;4.10;99.90;;;;;;4952052;28;20049;-74
2021/01/20 04:37:02;;;;;;;13.07;5.37;;;4.10;99.90;;;;;;4952261;28;20034;-73
2021/01/20 04:39:27;;;;;;;15.35;5.50;;;4.10;99.90;;;;;;4952954;28;20841;-74
2021/01/20 04:41:53;;;;;;;9.05;4.35;;;4.10;99.90;;;;;;4967258;28;20053;-74
2021/01/20 04:44:19;;;;;;;9.82;4.65;;;4.20;99.90;;;;;;4950125;28;20121;-74
2021/01/20 04:46:46;;;;;;;7.72;4.22;;;4.20;99.90;;;;;;4954710;28;20829;-74
2021/01/20 04:49:14;;;;;;;10.13;4.25;;;4.20;99.90;;;;;;4953501;28;20038;-74
2021/01/20 04:51:41;;;;;;;10.27;4.20;;;4.20;99.90;;;;;;4955437;28;20773;-74
2021/01/20 04:54:11;;;;;;;10.80;4.28;;;4.10;99.90;;;;;;4954107;28;20113;-74
2021/01/20 04:56:38;;;;;;;9.60;3.65;;;4.20;99.90;;;;;;4945267;28;20035;-74
2021/01/20 04:59:07;;;;;;;7.82;4.13;;;4.20;99.90;;;;;;4947584;28;20034;-74
2021/01/20 05:01:33;;;;;;;11.45;3.85;;;4.20;99.90;;;;;;4952516;28;20154;-74
2021/01/20 05:04:01;;;;;;;10.50;3.80;;;4.10;99.90;;;;;;4952455;28;20053;-74
2021/01/20 05:06:28;;;;;;;7.63;3.17;;;4.20;99.90;;;;;;4953491;28;20035;-74
2021/01/20 05:08:54;;;;;;;8.48;4.07;;;4.00;99.90;;;;;;4945864;28;20024;-74
2021/01/20 05:11:34;;;;;;;7.43;3.15;;;4.00;99.90;;;;;;4948659;28;20099;-73
2021/01/20 05:14:11;;;;;;;6.15;3.03;;;4.00;99.90;;;;;;4956088;28;20497;-73
2021/01/20 05:16:37;;;;;;;8.35;3.15;;;3.90;99.90;;;;;;4960638;28;20035;-73
2021/01/20 05:19:03;;;;;;;7.20;3.33;;;4.00;99.90;;;;;;4947054;28;20038;-73
2021/01/20 05:21:29;;;;;;;6.07;3.08;;;4.10;99.90;;;;;;4950659;28;20043;-73
2021/01/20 05:24:23;;;;;;;5.65;2.90;;;4.00;99.90;;;;;;4946007;28;20035;-74
2021/01/20 05:26:50;;;;;;;6.60;3.47;;;4.00;99.90;;;;;;4949826;28;20567;-73
2021/01/20 05:29:17;;;;;;;6.15;3.25;;;3.90;99.90;;;;;;4962465;28;20039;-74
2021/01/20 05:31:43;;;;;;;6.15;3.05;;;3.90;99.90;;;;;;4957536;28;20045;-73
2021/01/20 05:35:01;;;;;;;7.55;3.22;;;4.00;99.90;;;;;;4954076;28;20495;-75
2021/01/20 05:37:27;;;;;;;7.78;3.35;;;3.90;99.90;;;;;;4929009;29;20079;-74
2021/01/20 05:40:10;;;;;;;5.78;2.97;;;3.90;99.90;;;;;;4947734;28;20169;-74
2021/01/20 05:42:50;;;;;;;8.43;3.22;;;4.00;99.90;;;;;;4960901;28;20171;-74
2021/01/20 05:45:17;;;;;;;7.57;3.22;;;4.00;99.90;;;;;;4950951;28;20553;-74
2021/01/20 05:48:09;;;;;;;7.68;3.30;;;4.00;99.90;;;;;;4949755;28;20071;-74
2021/01/20 05:50:56;;;;;;;6.72;3.30;;;4.10;99.90;;;;;;4951574;28;20551;-74
2021/01/20 05:53:22;;;;;;;5.97;2.72;;;4.10;99.90;;;;;;4948935;28;20031;-73
2021/01/20 05:56:03;;;;;;;9.75;3.67;;;4.10;99.90;;;;;;4951991;28;20058;-74
2021/01/20 05:58:39;;;;;;;4.97;3.45;;;4.10;99.90;;;;;;4950327;28;20076;-73
2021/01/20 06:01:10;;;;;;;5.45;3.10;;;4.10;99.90;;;;;;4946544;28;20070;-73
2021/01/20 06:03:36;;;;;;;7.63;3.20;;;4.10;99.90;;;;;;4945538;28;20039;-73
2021/01/20 06:06:04;;;;;;;5.45;2.95;;;4.00;99.90;;;;;;4945338;28;20027;-73
2021/01/20 06:08:34;;;;;;;7.70;3.70;;;4.10;99.90;;;;;;4953063;28;20034;-73
2021/01/20 06:11:02;;;;;;;5.30;3.00;;;4.10;99.90;;;;;;4959031;28;20034;-74
2021/01/20 06:13:28;;;;;;;7.05;3.33;;;4.00;99.90;;;;;;4952482;28;20034;-73
2021/01/20 06:15:59;;;;;;;7.75;2.78;;;4.00;99.90;;;;;;4947107;28;20034;-74
2021/01/20 06:18:31;;;;;;;8.85;4.00;;;4.10;99.90;;;;;;4950147;28;20030;-75
2021/01/20 06:20:57;;;;;;;9.00;3.13;;;4.00;99.90;;;;;;4952978;28;20041;-73
2021/01/20 06:23:25;;;;;;;6.38;2.80;;;4.00;99.90;;;;;;4952027;28;20027;-74
2021/01/20 06:26:07;;;;;;;8.27;4.00;;;4.00;99.90;;;;;;4963452;28;20556;-74
2021/01/20 06:28:36;;;;;;;7.10;3.10;;;4.00;99.90;;;;;;4944983;28;20043;-73
2021/01/20 06:31:05;;;;;;;5.88;2.47;;;4.00;99.90;;;;;;4967926;28;20213;-73
2021/01/20 06:33:31;;;;;;;4.03;2.33;;;4.00;99.90;;;;;;4952731;28;20057;-74
2021/01/20 06:35:57;;;;;;;6.50;3.60;;;4.00;99.90;;;;;;4947859;28;20101;-74
2021/01/20 06:38:28;;;;;;;7.43;3.15;;;4.00;99.90;;;;;;4948288;28;20046;-74
2021/01/20 06:40:56;;;;;;;6.05;3.00;;;4.10;99.90;;;;;;4959163;28;20137;-74
2021/01/20 06:43:34;;;;;;;5.18;2.80;;;4.10;99.90;;;;;;4958878;28;20039;-75
2021/01/20 06:46:27;;;;;;;6.60;3.05;;;4.10;99.90;;;;;;4956737;28;20030;-75
2021/01/20 06:48:55;;;;;;;7.05;3.20;;;4.00;99.90;;;;;;4944515;28;20043;-76
2021/01/20 06:51:25;;;;;;;8.10;3.45;;;3.90;99.90;;;;;;4964283;28;20043;-75
2021/01/20 06:53:54;;;;;;;7.90;3.20;;;3.90;99.90;;;;;;4952954;28;20126;-76
2021/01/20 06:56:38;;;;;;;7.10;2.63;;;3.80;99.90;;;;;;4949856;28;20042;-76
2021/01/20 06:59:14;;;;;;;12.13;3.33;;;3.80;99.90;;;;;;4948083;28;20043;-75
2021/01/20 07:01:40;;;;;;;5.88;2.65;;;3.80;99.90;;;;;;4950818;28;20411;-75
2021/01/20 07:04:05;;;;;;;4.30;2.60;;;3.80;99.90;;;;;;4949635;28;20040;-75
2021/01/20 07:06:34;;;;;;;4.75;2.67;;;3.80;99.90;;;;;;4947483;28;20054;-75
2021/01/20 07:09:04;;;;;;;5.75;2.97;;;3.80;99.90;;;;;;4946026;28;20111;-75
2021/01/20 07:11:30;;;;;;;5.90;2.80;;;3.80;99.90;;;;;;4956653;28;20042;-75
2021/01/20 07:13:55;;;;;;;9.05;2.60;;;3.90;99.90;;;;;;4965567;28;20116;-75
2021/01/20 07:16:22;;;;;;;5.45;3.15;;;3.80;99.90;;;;;;4955449;28;20041;-75
2021/01/20 07:18:52;;;;;;;7.63;2.97;;;3.80;99.90;;;;;;4958655;28;20038;-75
2021/01/20 07:21:19;;;;;;;5.53;2.50;;;3.80;99.90;;;;;;4960774;28;20035;-75
2021/01/20 07:23:44;;;;;;;6.13;2.60;;;3.80;99.90;;;;;;4963613;28;20041;-75
2021/01/20 07:26:13;;;;;;;7.80;2.92;;;3.90;99.90;;;;;;4945204;28;20641;-74
2021/01/20 07:28:39;;;;;;;5.38;2.63;;;3.80;99.90;;;;;;4971579;28;20748;-74
2021/01/20 07:31:14;;;;;;;5.97;2.45;;;3.90;99.90;;;;;;4955707;28;20038;-75
2021/01/20 07:33:40;;;;;;;;;;;3.90;99.90;;;;;;4952213;28;20038;-74
2021/01/20 07:36:18;;;;;;;4.80;2.50;;;4.00;99.90;;;;;;4958494;28;19921;-74
2021/01/20 07:38:45;;;;;;;3.95;2.40;;;3.90;99.90;;;;;;4953181;28;20460;-77
2021/01/20 07:41:14;;;;;;;4.18;2.50;;;4.00;99.90;;;;;;4959285;28;20031;-74
2021/01/20 07:43:40;;;;;;;4.18;2.15;;;4.00;99.90;;;;;;4961074;28;20053;-74
2021/01/20 07:46:18;;;;;;;5.88;2.42;;;4.10;99.90;;;;;;4946215;28;20551;-74
2021/01/20 07:48:44;;;;;;;4.63;2.65;;;4.10;99.90;;;;;;4957592;28;20658;-74
2021/01/20 07:51:17;;;;;;;5.03;2.30;;;4.20;99.90;;;;;;4949102;28;20093;-76
2021/01/20 07:54:04;;;;;;;4.55;2.53;;;4.20;99.90;;;;;;4953125;28;20833;-77
2021/01/20 07:56:31;;;;;;;5.35;2.60;;;4.20;99.90;;;;;;4950119;28;20781;-75
2021/01/20 07:59:13;;;;;;;4.93;2.55;;;4.30;99.90;;;;;;4950968;28;20053;-74
2021/01/20 08:01:39;;;;;;;7.55;2.20;;;4.30;99.90;;;;;;4955694;28;20535;-74
2021/01/20 08:04:23;;;;;;;8.02;2.50;;;4.40;99.90;;;;;;4959897;28;20118;-74
2021/01/20 08:06:49;;;;;;;5.93;2.60;;;4.50;99.90;;;;;;4969575;28;20142;-74
2021/01/20 08:09:16;;;;;;;5.45;2.45;;;4.50;99.90;;;;;;4942740;29;20046;-73
2021/01/20 08:11:45;;;;;;;5.00;2.63;;;4.50;99.90;;;;;;4955988;28;20026;-74
2021/01/20 08:14:11;;;;;;;7.88;2.78;;;4.50;99.90;;;;;;4947998;28;20048;-74
2021/01/20 08:16:38;;;;;;;2.97;2.03;;;4.60;99.90;;;;;;4956848;28;20133;-74
2021/01/20 08:19:06;;;;;;;5.25;1.95;;;4.70;99.90;;;;;;4950274;28;20543;-73
2021/01/20 08:21:33;;;;;;;4.78;2.05;;;4.70;99.90;;;;;;4955070;28;20039;-74
2021/01/20 08:24:05;;;;;;;4.25;2.33;;;4.80;99.90;;;;;;4967889;28;20577;-74
2021/01/20 08:26:32;;;;;;;4.50;2.45;;;4.80;99.90;;;;;;4954004;28;20050;-74
2021/01/20 08:29:05;;;;;;;4.43;2.22;;;4.90;99.90;;;;;;4961330;28;20042;-74
2021/01/20 08:31:31;;;;;;;4.30;2.13;;;4.80;99.90;;;;;;4960987;28;20137;-74
2021/01/20 08:34:14;;;;;;;6.63;2.17;;;4.90;99.90;;;;;;4956363;28;20043;-72
2021/01/20 08:37:00;;;;;;;6.63;2.65;;;4.90;99.90;;;;;;4960498;28;20030;-73
2021/01/20 08:39:27;;;;;;;7.38;2.75;;;5.00;99.90;;;;;;4953585;28;20489;-73
2021/01/20 08:42:16;;;;;;;7.28;3.42;;;5.10;99.90;;;;;;4954766;28;20035;-72
2021/01/20 08:45:13;;;;;;;3.15;2.03;;;5.10;99.90;;;;;;4954501;28;20037;-73
2021/01/20 08:48:06;;;;;;;8.73;3.55;;;5.00;99.90;;;;;;4972770;28;20078;-73
2021/01/20 08:50:38;;;;;;;3.85;2.00;;;5.20;99.90;;;;;;4954262;28;20542;-73
2021/01/20 08:53:10;;;;;;;7.20;2.33;;;5.30;99.90;;;;;;4945113;28;20813;-73
2021/01/20 08:55:52;;;;;;;3.60;2.10;;;5.30;99.90;;;;;;4966783;28;20035;-72
2021/01/20 08:58:34;;;;;;;4.03;2.00;;;5.30;99.90;;;;;;4953264;28;20070;-72
2021/01/20 09:01:15;;;;;;;4.13;2.70;;;5.30;99.90;;;;;;4952131;28;20045;-72
2021/01/20 09:04:02;;;;;;;7.63;3.33;;;5.40;99.90;;;;;;4954611;28;20046;-73
2021/01/20 09:06:28;;;;;;;4.20;2.20;;;5.40;99.90;;;;;;4962362;28;20039;-72
2021/01/20 09:08:54;;;;;;;4.03;2.40;;;5.40;99.90;;;;;;4954850;28;20134;-73
2021/01/20 09:11:21;;;;;;;5.20;2.30;;;5.40;99.90;;;;;;4962729;28;20092;-73
2021/01/20 09:13:47;;;;;;;5.03;2.35;;;5.50;99.90;;;;;;4950026;28;20061;-72
2021/01/20 09:16:13;;;;;;;3.25;2.28;;;5.60;99.90;;;;;;4939712;28;20065;-72
2021/01/20 09:18:39;;;;;;;5.10;2.10;;;5.60;99.90;;;;;;4954531;28;20413;-73
2021/01/20 09:21:05;;;;;;;4.07;2.28;;;5.60;99.90;;;;;;4957038;28;20034;-73
2021/01/20 09:23:32;;;;;;;3.75;1.90;;;5.60;99.90;;;;;;4954747;28;20035;-73
2021/01/20 09:25:58;;;;;;;4.50;2.20;;;5.60;99.90;;;;;;4953999;28;20129;-73
2021/01/20 09:28:24;;;;;;;3.63;2.13;;;5.70;99.90;;;;;;4951213;28;20041;-73
2021/01/20 09:30:50;;;;;;;3.53;1.77;;;5.80;99.90;;;;;;4955301;28;20023;-73
2021/01/20 09:33:16;;;;;;;4.80;2.40;;;5.80;99.90;;;;;;4958456;28;20893;-73
2021/01/20 09:35:42;;;;;;;6.90;2.67;;;6.00;99.90;;;;;;4950990;28;20042;-73
2021/01/20 09:38:08;;;;;;;4.32;2.28;;;6.10;99.90;;;;;;4953187;28;20034;-74
2021/01/20 09:40:34;;;;;;;3.25;1.90;;;6.20;99.90;;;;;;4939267;28;20050;-76
2021/01/20 09:43:00;;;;;;;5.43;2.42;;;6.30;99.90;;;;;;4944995;28;20108;-72
2021/01/20 09:45:27;;;;;;;5.45;2.97;;;6.30;99.90;;;;;;4953454;28;20038;-75
2021/01/20 09:48:02;;;;;;;6.40;2.67;;;6.30;99.90;;;;;;4957917;28;20042;-74
2021/01/20 09:50:33;;;;;;;5.38;2.20;;;6.30;99.90;;;;;;4952891;28;20031;-73
2021/01/20 09:53:00;;;;;;;5.82;2.30;;;6.20;99.90;;;;;;4952415;28;20077;-73
2021/01/20 09:55:36;;;;;;;4.10;2.10;;;6.20;99.90;;;;;;4950236;28;20090;-73
2021/01/20 09:58:03;;;;;;;4.13;2.50;;;6.20;99.90;;;;;;4952922;28;20027;-73
2021/01/20 10:00:29;;;;;;;6.20;2.20;;;6.30;99.90;;;;;;4962840;28;20035;-75
2021/01/20 10:02:56;;;;;;;3.47;2.17;;;6.40;99.90;;;;;;4946011;28;20046;-73
2021/01/20 10:05:21;;;;;;;5.35;2.13;;;6.40;99.90;;;;;;4946776;28;20038;-74
2021/01/20 10:07:47;;;;;;;12.82;4.85;;;6.50;99.90;;;;;;4952803;28;20399;-73
2021/01/20 10:10:13;;;;;;;5.68;2.97;;;6.60;99.90;;;;;;4951557;28;20038;-73
2021/01/20 10:12:40;;;;;;;6.00;2.80;;;6.60;99.90;;;;;;4954203;28;20035;-72
2021/01/20 10:15:07;;;;;;;4.15;2.00;;;6.60;99.90;;;;;;4966252;28;20148;-73
2021/01/20 10:17:34;;;;;;;4.72;2.08;;;6.70;99.90;;;;;;4937122;28;20435;-74
2021/01/20 10:20:00;;;;;;;4.68;2.00;;;6.80;99.90;;;;;;4954243;28;20455;-72
2021/01/20 10:22:26;;;;;;;4.57;2.00;;;7.00;99.90;;;;;;4952172;28;20039;-76
2021/01/20 10:24:52;;;;;;;3.35;2.10;;;6.90;99.90;;;;;;4957878;28;20109;-72
2021/01/20 10:27:18;;;;;;;3.97;1.80;;;7.00;99.90;;;;;;4958921;28;20105;-72
2021/01/20 10:29:44;;;;;;;5.20;2.20;;;7.00;99.90;;;;;;4950276;28;20757;-73
2021/01/20 10:32:09;;;;;;;4.72;2.22;;;7.10;99.90;;;;;;4954976;28;20026;-76
2021/01/20 10:34:36;;;;;;;6.32;2.85;;;7.20;99.90;;;;;;4951619;28;20117;-72
2021/01/20 10:37:05;;;;;;;3.45;1.92;;;7.20;99.90;;;;;;4944002;28;20039;-73
2021/01/20 10:39:31;;;;;;;4.85;1.90;;;7.30;99.90;;;;;;4951500;28;20038;-74
2021/01/20 10:41:57;;;;;;;3.47;2.13;;;7.20;99.90;;;;;;4959645;28;20034;-72
2021/01/20 10:44:23;;;;;;;4.20;2.00;;;7.30;99.90;;;;;;4958565;28;20035;-75
2021/01/20 10:46:48;;;;;;;3.70;1.92;;;7.30;99.90;;;;;;4963329;28;20033;-72
2021/01/20 10:49:14;;;;;;;7.07;2.80;;;7.30;99.90;;;;;;4962442;28;20034;-73
2021/01/20 10:51:40;;;;;;;3.45;1.65;;;7.40;99.90;;;;;;4966868;28;20570;-77
2021/01/20 10:54:06;;;;;;;5.82;3.00;;;7.40;99.90;;;;;;4974142;28;20038;-73
2021/01/20 10:56:32;;;;;;;2.80;1.80;;;7.50;99.90;;;;;;4958388;28;20039;-73
2021/01/20 10:58:58;;;;;;;8.32;3.95;;;7.60;99.90;;;;;;4970388;28;20053;-73
2021/01/20 11:01:24;;;;;;;4.40;2.47;;;7.60;99.90;;;;;;4968783;28;20697;-73
2021/01/20 11:03:49;;;;;;;3.53;2.17;;;7.60;99.90;;;;;;4970893;28;20669;-72
2021/01/20 11:06:15;;;;;;;4.40;2.50;;;7.50;99.90;;;;;;4985357;28;20083;-72
2021/01/20 11:08:41;;;;;;;5.40;1.88;;;7.60;99.90;;;;;;4961161;28;20049;-73
2021/01/20 11:11:08;;;;;;;7.53;3.85;;;7.60;99.90;;;;;;4969033;28;20042;-72
2021/01/20 11:13:34;;;;;;;2.65;1.77;;;7.60;99.90;;;;;;4960918;28;20885;-72
2021/01/20 11:16:00;;;;;;;4.38;2.03;;;7.60;99.90;;;;;;4972115;28;20027;-73
2021/01/20 11:18:28;;;;;;;5.35;2.78;;;7.60;99.90;;;;;;4970572;28;20949;-73
2021/01/20 11:20:54;;;;;;;6.65;2.92;;;7.60;99.90;;;;;;4967623;28;20022;-73
2021/01/20 11:23:19;;;;;;;5.15;2.20;;;7.60;99.90;;;;;;4975821;28;20034;-72
2021/01/20 11:25:47;;;;;;;4.03;2.10;;;7.60;99.90;;;;;;4973506;28;20141;-72
2021/01/20 11:28:14;;;;;;;4.60;2.30;;;7.60;99.90;;;;;;4963103;28;20035;-72
2021/01/20 11:30:40;;;;;;;3.78;2.13;;;7.70;99.90;;;;;;4967993;28;20114;-74
2021/01/20 11:33:07;;;;;;;4.93;2.33;;;7.70;99.90;;;;;;4961546;28;20090;-72
2021/01/20 11:35:33;;;;;;;3.10;1.85;;;7.80;99.90;;;;;;4954960;28;20119;-71
2021/01/20 11:37:59;;;;;;;3.72;2.20;;;7.90;99.90;;;;;;4967951;28;20118;-71
2021/01/20 11:40:26;;;;;;;3.33;2.08;;;7.90;99.90;;;;;;4964038;28;20174;-71
2021/01/20 11:42:57;;;;;;;6.13;2.28;;;7.90;99.90;;;;;;4967643;28;20073;-71
2021/01/20 11:45:33;;;;;;;8.98;4.28;;;8.00;99.90;;;;;;4979185;28;20160;-72
2021/01/20 11:48:00;;;;;;;4.28;2.08;;;8.20;99.90;;;;;;4970609;28;20423;-72
2021/01/20 11:50:26;;;;;;;3.88;1.52;;;8.10;99.90;;;;;;4962345;28;20026;-71
2021/01/20 11:52:53;;;;;;;2.30;1.30;;;8.20;99.90;;;;;;4966346;28;20463;-71
2021/01/20 11:55:19;;;;;;;5.63;1.85;;;8.30;99.90;;;;;;4961847;28;20407;-71
2021/01/20 11:57:45;;;;;;;4.28;1.70;;;8.40;99.90;;;;;;4963812;28;20106;-71
2021/01/20 12:00:12;;;;;;;2.90;1.67;;;8.30;99.90;;;;;;4952826;28;20039;-72
2021/01/20 12:02:39;;;;;;;2.33;1.65;;;8.30;99.90;;;;;;4965421;28;20030;-71
2021/01/20 12:05:08;;;;;;;3.92;2.92;;;8.40;99.90;;;;;;4966606;28;20060;-73
2021/01/20 12:07:35;;;;;;;4.28;2.15;;;8.40;99.90;;;;;;4971706;28;20027;-72
2021/01/20 12:10:01;;;;;;;5.80;2.00;;;8.40;99.90;;;;;;4972336;28;20759;-72
2021/01/20 12:12:27;;;;;;;2.53;1.60;;;8.40;99.90;;;;;;4972723;28;20041;-72
2021/01/20 12:14:52;;;;;;;4.18;1.70;;;8.40;99.90;;;;;;4964791;28;20041;-73
2021/01/20 12:17:18;;;;;;;2.33;1.20;;;8.50;99.90;;;;;;4967118;28;20537;-72
2021/01/20 12:19:44;;;;;;;2.80;1.55;;;8.40;99.90;;;;;;4969364;28;20042;-72
2021/01/20 12:22:10;;;;;;;3.50;1.60;;;8.30;99.90;;;;;;4974329;28;20856;-71
2021/01/20 12:24:35;;;;;;;5.93;1.55;;;8.30;99.90;;;;;;4970542;28;20129;-72
2021/01/20 12:27:01;;;;;;;4.95;1.85;;;8.40;99.90;;;;;;4963640;28;20105;-72
2021/01/20 12:29:27;;;;;;;3.90;1.73;;;8.50;99.90;;;;;;4969036;28;20039;-72
2021/01/20 12:31:53;;;;;;;2.33;1.40;;;8.40;99.90;;;;;;4966248;28;20034;-72
2021/01/20 12:34:19;;;;;;;3.28;1.58;;;8.50;99.90;;;;;;4962734;28;20160;-73
2021/01/20 12:36:48;;;;;;;6.68;1.63;;;8.50;99.90;;;;;;4953871;28;20448;-73
2021/01/20 12:39:15;;;;;;;3.63;1.67;;;8.60;99.90;;;;;;4957773;28;20121;-73
2021/01/20 12:41:41;;;;;;;3.85;1.63;;;8.60;99.90;;;;;;4965435;28;20050;-74
2021/01/20 12:44:07;;;;;;;5.65;2.72;;;8.70;99.90;;;;;;4962702;28;20034;-74
2021/01/20 12:46:33;;;;;;;5.10;1.40;;;8.60;99.90;;;;;;4963933;28;20046;-74
2021/01/20 12:48:59;;;;;;;5.20;1.70;;;8.60;99.90;;;;;;4965926;28;20038;-73
2021/01/20 12:51:25;;;;;;;2.88;1.60;;;8.70;99.90;;;;;;4969435;28;20038;-73
2021/01/20 12:53:50;;;;;;;2.60;1.60;;;8.70;99.90;;;;;;4964377;28;20073;-73
2021/01/20 12:56:16;;;;;;;3.13;1.50;;;8.70;99.90;;;;;;4965772;28;20042;-74
2021/01/20 12:58:42;;;;;;;3.47;1.60;;;8.70;99.90;;;;;;4960334;28;20755;-73
2021/01/20 13:01:08;;;;;;;4.80;1.45;;;8.70;99.90;;;;;;4967243;28;20125;-73
2021/01/20 13:03:34;;;;;;;3.22;1.45;;;8.70;99.90;;;;;;4964248;28;20042;-73
2021/01/20 13:06:00;;;;;;;3.17;1.40;;;8.80;99.90;;;;;;4964954;28;20056;-73